sensor_id;sensor_type;location;lat;lon;timestamp;temperature;humidity
13310;DHT22;6723;48.256;16.402;2022-09-01T00:01:11;18.80;99.90
13310;DHT22;6723;48.256;16.402;2022-09-01T00:03:43;18.90;99.90
13310;DHT22;6723;48.256;16.402;2022-09-01T00:06:14;18.80;99.90
13310;DHT22;6723;48.256;16.402;2022-09-01T00:08:40;18.70;99.90
13310;DHT22;6723;48.256;16.402;2022-09-01T00:11:06;18.70;99.90
13310;DHT22;6723;48.256;16.402;2022-09-01T00:13:32;18.70;99.90
13310;DHT22;6723;48.256;16.402;2022-09-01T00:16:01;18.70;99.90
13310;DHT22;6723;48.256;16.402;2022-09-01T00:18:29;18.60;99.90
13310;DHT22;6723;48.256;16.402;2022-09-01T00:20:58;18.60;99.90
13310;DHT22;6723;48.256;16.402;2022-09-01T00:23:27;18.60;99.90
13310;DHT22;6723;48.256;16.402;2022-09-01T00:25:54;18.60;99.90
13310;DHT22;6723;48.256;16.402;2022-09-01T00:28:20;18.50;99.90
13310;DHT22;6723;48.256;16.402;2022-09-01T00:30:46;18.50;99.90
13310;DHT22;6723;48.256;16.402;2022-09-01T00:33:12;18.50;99.90
13310;DHT22;6723;48.256;16.402;2022-09-01T00:35:38;18.40;99.90
13310;DHT22;6723;48.256;16.402;2022-09-01T00:38:03;18.40;99.90
13310;DHT22;6723;48.256;16.402;2022-09-01T00:40:29;18.40;99.90
13310;DHT22;6723;48.256;16.402;2022-09-01T00:42:56;18.50;99.90
13310;DHT22;6723;48.256;16.402;2022-09-01T00:45:22;18.40;99.90
13310;DHT22;6723;48.256;16.402;2022-09-01T00:47:48;18.40;99.90
13310;DHT22;6723;48.256;16.402;2022-09-01T00:50:16;18.40;99.90
13310;DHT22;6723;48.256;16.402;2022-09-01T00:52:50;18.50;99.90
13310;DHT22;6723;48.256;16.402;2022-09-01T00:55:42;18.50;99.90
13310;DHT22;6723;48.256;16.402;2022-09-01T00:58:09;18.50;99.90
13310;DHT22;6723;48.256;16.402;2022-09-01T01:00:37;18.40;99.90
13310;DHT22;6723;48.256;16.402;2022-09-01T01:03:07;18.30;99.90
13310;DHT22;6723;48.256;16.402;2022-09-01T01:05:37;18.30;99.90
13310;DHT22;6723;48.256;16.402;2022-09-01T01:08:06;18.20;99.90
13310;DHT22;6723;48.256;16.402;2022-09-01T01:10:37;18.20;99.90
13310;DHT22;6723;48.256;16.402;2022-09-01T01:13:16;18.10;99.90
13310;DHT22;6723;48.256;16.402;2022-09-01T01:15:42;18.10;99.90
13310;DHT22;6723;48.256;16.402;2022-09-01T01:18:13;18.00;99.90
13310;DHT22;6723;48.256;16.402;2022-09-01T01:20:40;18.00;99.90
13310;DHT22;6723;48.256;16.402;2022-09-01T01:23:38;17.90;99.90
13310;DHT22;6723;48.256;16.402;2022-09-01T01:26:08;17.80;99.90
13310;DHT22;6723;48.256;16.402;2022-09-01T01:28:38;17.80;99.90
13310;DHT22;6723;48.256;16.402;2022-09-01T01:31:07;17.80;99.90
13310;DHT22;6723;48.256;16.402;2022-09-01T01:33:43;17.80;99.90
13310;DHT22;6723;48.256;16.402;2022-09-01T01:38:48;17.80;99.90
13310;DHT22;6723;48.256;16.402;2022-09-01T01:41:16;17.70;99.90
13310;DHT22;6723;48.256;16.402;2022-09-01T01:43:45;17.80;99.90
13310;DHT22;6723;48.256;16.402;2022-09-01T01:46:12;17.70;99.90
13310;DHT22;6723;48.256;16.402;2022-09-01T01:48:41;17.70;99.90
13310;DHT22;6723;48.256;16.402;2022-09-01T01:51:08;17.80;99.90
13310;DHT22;6723;48.256;16.402;2022-09-01T01:53:37;17.70;99.90
13310;DHT22;6723;48.256;16.402;2022-09-01T01:56:04;17.80;99.90
13310;DHT22;6723;48.256;16.402;2022-09-01T01:58:32;17.80;99.90
13310;DHT22;6723;48.256;16.402;2022-09-01T02:00:58;17.70;99.90
13310;DHT22;6723;48.256;16.402;2022-09-01T02:03:28;17.80;99.90
13310;DHT22;6723;48.256;16.402;2022-09-01T02:05:59;17.80;99.90
13310;DHT22;6723;48.256;16.402;2022-09-01T02:08:33;17.80;99.90
13310;DHT22;6723;48.256;16.402;2022-09-01T02:11:01;17.80;99.90
13310;DHT22;6723;48.256;16.402;2022-09-01T02:13:27;17.80;99.90
13310;DHT22;6723;48.256;16.402;2022-09-01T02:15:59;17.80;99.90
13310;DHT22;6723;48.256;16.402;2022-09-01T02:18:33;17.70;99.90
13310;DHT22;6723;48.256;16.402;2022-09-01T02:21:05;17.80;99.90
13310;DHT22;6723;48.256;16.402;2022-09-01T02:23:37;17.80;99.90
13310;DHT22;6723;48.256;16.402;2022-09-01T02:26:04;17.80;99.90
13310;DHT22;6723;48.256;16.402;2022-09-01T02:28:34;17.80;99.90
13310;DHT22;6723;48.256;16.402;2022-09-01T02:31:02;17.70;99.90
13310;DHT22;6723;48.256;16.402;2022-09-01T02:33:31;17.70;99.90
13310;DHT22;6723;48.256;16.402;2022-09-01T02:36:00;17.70;99.90
13310;DHT22;6723;48.256;16.402;2022-09-01T02:38:28;17.70;99.90
13310;DHT22;6723;48.256;16.402;2022-09-01T02:40:58;17.60;99.90
13310;DHT22;6723;48.256;16.402;2022-09-01T02:43:27;17.60;99.90
13310;DHT22;6723;48.256;16.402;2022-09-01T02:45:59;17.70;99.90
13310;DHT22;6723;48.256;16.402;2022-09-01T02:48:28;17.70;99.90
13310;DHT22;6723;48.256;16.402;2022-09-01T02:50:59;17.70;99.90
13310;DHT22;6723;48.256;16.402;2022-09-01T02:53:28;17.70;99.90
13310;DHT22;6723;48.256;16.402;2022-09-01T02:55:55;17.70;99.90
13310;DHT22;6723;48.256;16.402;2022-09-01T02:58:28;17.70;99.90
13310;DHT22;6723;48.256;16.402;2022-09-01T03:00:56;17.70;99.90
13310;DHT22;6723;48.256;16.402;2022-09-01T03:03:23;17.70;99.90
13310;DHT22;6723;48.256;16.402;2022-09-01T03:05:53;17.70;99.90
13310;DHT22;6723;48.256;16.402;2022-09-01T03:08:23;17.70;99.90
13310;DHT22;6723;48.256;16.402;2022-09-01T03:10:50;17.80;99.90
13310;DHT22;6723;48.256;16.402;2022-09-01T03:13:21;17.80;99.90
13310;DHT22;6723;48.256;16.402;2022-09-01T03:15:48;17.70;99.90
13310;DHT22;6723;48.256;16.402;2022-09-01T03:18:16;17.70;99.90
13310;DHT22;6723;48.256;16.402;2022-09-01T03:20:44;17.70;99.90
13310;DHT22;6723;48.256;16.402;2022-09-01T03:23:13;17.70;99.90
13310;DHT22;6723;48.256;16.402;2022-09-01T03:25:41;17.60;99.90
13310;DHT22;6723;48.256;16.402;2022-09-01T03:28:07;17.70;99.90
13310;DHT22;6723;48.256;16.402;2022-09-01T03:30:35;17.70;99.90
13310;DHT22;6723;48.256;16.402;2022-09-01T03:33:06;17.70;99.90
13310;DHT22;6723;48.256;16.402;2022-09-01T03:35:32;17.60;99.90
13310;DHT22;6723;48.256;16.402;2022-09-01T03:38:00;17.60;99.90
13310;DHT22;6723;48.256;16.402;2022-09-01T03:40:32;17.60;99.90
13310;DHT22;6723;48.256;16.402;2022-09-01T03:43:00;17.50;99.90
13310;DHT22;6723;48.256;16.402;2022-09-01T03:45:27;17.50;99.90
13310;DHT22;6723;48.256;16.402;2022-09-01T03:47:55;17.50;99.90
13310;DHT22;6723;48.256;16.402;2022-09-01T03:50:24;17.60;99.90
13310;DHT22;6723;48.256;16.402;2022-09-01T03:52:53;17.60;99.90
13310;DHT22;6723;48.256;16.402;2022-09-01T03:55:23;17.50;99.90
13310;DHT22;6723;48.256;16.402;2022-09-01T03:57:54;17.60;99.90
13310;DHT22;6723;48.256;16.402;2022-09-01T04:00:23;17.60;99.90
13310;DHT22;6723;48.256;16.402;2022-09-01T04:02:51;17.60;99.90
13310;DHT22;6723;48.256;16.402;2022-09-01T04:05:22;17.60;99.90
13310;DHT22;6723;48.256;16.402;2022-09-01T04:07:53;17.60;99.90
13310;DHT22;6723;48.256;16.402;2022-09-01T04:10:20;17.70;99.90
13310;DHT22;6723;48.256;16.402;2022-09-01T04:12:47;17.60;99.90
13310;DHT22;6723;48.256;16.402;2022-09-01T04:15:14;17.60;99.90
13310;DHT22;6723;48.256;16.402;2022-09-01T04:17:42;17.60;99.90
13310;DHT22;6723;48.256;16.402;2022-09-01T04:20:28;17.60;99.90
13310;DHT22;6723;48.256;16.402;2022-09-01T04:22:54;17.70;99.90
13310;DHT22;6723;48.256;16.402;2022-09-01T04:25:22;17.70;99.90
13310;DHT22;6723;48.256;16.402;2022-09-01T04:27:52;17.60;99.90
13310;DHT22;6723;48.256;16.402;2022-09-01T04:30:22;17.60;99.90
13310;DHT22;6723;48.256;16.402;2022-09-01T04:32:56;17.60;99.90
13310;DHT22;6723;48.256;16.402;2022-09-01T04:35:23;17.60;99.90
13310;DHT22;6723;48.256;16.402;2022-09-01T04:37:58;17.60;99.90
13310;DHT22;6723;48.256;16.402;2022-09-01T04:40:25;17.80;99.90
13310;DHT22;6723;48.256;16.402;2022-09-01T04:42:51;17.90;99.90
13310;DHT22;6723;48.256;16.402;2022-09-01T04:45:17;17.90;99.90
13310;DHT22;6723;48.256;16.402;2022-09-01T04:47:47;17.90;99.90
13310;DHT22;6723;48.256;16.402;2022-09-01T04:50:13;18.00;99.90
13310;DHT22;6723;48.256;16.402;2022-09-01T04:52:45;18.00;99.90
13310;DHT22;6723;48.256;16.402;2022-09-01T04:55:13;18.10;99.90
13310;DHT22;6723;48.256;16.402;2022-09-01T04:57:47;18.20;99.90
13310;DHT22;6723;48.256;16.402;2022-09-01T05:00:16;18.20;99.90
13310;DHT22;6723;48.256;16.402;2022-09-01T05:03:00;18.20;99.90
13310;DHT22;6723;48.256;16.402;2022-09-01T05:05:37;18.10;99.90
13310;DHT22;6723;48.256;16.402;2022-09-01T05:08:08;18.30;99.90
13310;DHT22;6723;48.256;16.402;2022-09-01T05:10:39;18.30;99.90
13310;DHT22;6723;48.256;16.402;2022-09-01T05:13:08;18.30;99.90
13310;DHT22;6723;48.256;16.402;2022-09-01T05:15:36;18.30;99.90
13310;DHT22;6723;48.256;16.402;2022-09-01T05:18:03;18.30;99.90
13310;DHT22;6723;48.256;16.402;2022-09-01T05:20:38;18.50;99.90
13310;DHT22;6723;48.256;16.402;2022-09-01T05:23:08;18.50;99.90
13310;DHT22;6723;48.256;16.402;2022-09-01T05:25:41;18.50;99.90
13310;DHT22;6723;48.256;16.402;2022-09-01T05:28:10;18.60;99.90
13310;DHT22;6723;48.256;16.402;2022-09-01T05:30:40;18.70;99.90
13310;DHT22;6723;48.256;16.402;2022-09-01T05:33:07;18.70;99.90
13310;DHT22;6723;48.256;16.402;2022-09-01T05:35:39;18.80;99.90
13310;DHT22;6723;48.256;16.402;2022-09-01T05:38:09;18.80;99.90
13310;DHT22;6723;48.256;16.402;2022-09-01T05:40:42;19.00;99.90
13310;DHT22;6723;48.256;16.402;2022-09-01T05:43:12;19.10;99.90
13310;DHT22;6723;48.256;16.402;2022-09-01T05:45:41;19.10;99.90
13310;DHT22;6723;48.256;16.402;2022-09-01T05:48:10;19.20;99.90
13310;DHT22;6723;48.256;16.402;2022-09-01T05:50:42;19.20;99.90
13310;DHT22;6723;48.256;16.402;2022-09-01T05:53:09;19.20;99.90
13310;DHT22;6723;48.256;16.402;2022-09-01T05:55:41;19.20;99.90
13310;DHT22;6723;48.256;16.402;2022-09-01T05:58:10;19.20;99.90
13310;DHT22;6723;48.256;16.402;2022-09-01T06:00:40;19.10;99.90
13310;DHT22;6723;48.256;16.402;2022-09-01T06:03:08;19.20;99.90
13310;DHT22;6723;48.256;16.402;2022-09-01T06:05:35;19.30;99.90
13310;DHT22;6723;48.256;16.402;2022-09-01T06:08:06;19.30;99.90
13310;DHT22;6723;48.256;16.402;2022-09-01T06:10:36;19.50;99.90
13310;DHT22;6723;48.256;16.402;2022-09-01T06:13:05;19.60;99.90
13310;DHT22;6723;48.256;16.402;2022-09-01T06:15:32;19.60;99.90
13310;DHT22;6723;48.256;16.402;2022-09-01T06:17:58;19.60;99.90
13310;DHT22;6723;48.256;16.402;2022-09-01T06:20:25;19.60;99.90
13310;DHT22;6723;48.256;16.402;2022-09-01T06:22:52;19.80;99.90
13310;DHT22;6723;48.256;16.402;2022-09-01T06:25:19;19.90;99.90
13310;DHT22;6723;48.256;16.402;2022-09-01T06:27:45;19.90;99.90
13310;DHT22;6723;48.256;16.402;2022-09-01T06:30:17;20.10;99.90
13310;DHT22;6723;48.256;16.402;2022-09-01T06:32:45;20.30;99.90
13310;DHT22;6723;48.256;16.402;2022-09-01T06:35:14;20.60;99.90
13310;DHT22;6723;48.256;16.402;2022-09-01T06:37:41;20.70;99.90
13310;DHT22;6723;48.256;16.402;2022-09-01T06:40:14;20.80;99.90
13310;DHT22;6723;48.256;16.402;2022-09-01T06:42:47;20.80;99.90
13310;DHT22;6723;48.256;16.402;2022-09-01T06:45:14;21.00;99.90
13310;DHT22;6723;48.256;16.402;2022-09-01T06:47:43;21.20;99.90
13310;DHT22;6723;48.256;16.402;2022-09-01T06:50:20;21.30;99.90
13310;DHT22;6723;48.256;16.402;2022-09-01T06:52:49;21.30;99.90
13310;DHT22;6723;48.256;16.402;2022-09-01T06:55:26;21.60;99.50
13310;DHT22;6723;48.256;16.402;2022-09-01T06:57:58;21.90;98.70
13310;DHT22;6723;48.256;16.402;2022-09-01T07:00:24;22.10;98.30
13310;DHT22;6723;48.256;16.402;2022-09-01T07:02:56;22.50;98.00
13310;DHT22;6723;48.256;16.402;2022-09-01T07:05:23;23.10;97.10
13310;DHT22;6723;48.256;16.402;2022-09-01T07:07:53;24.20;96.10
13310;DHT22;6723;48.256;16.402;2022-09-01T07:13:38;27.10;90.50
13310;DHT22;6723;48.256;16.402;2022-09-01T07:16:04;28.50;85.30
13310;DHT22;6723;48.256;16.402;2022-09-01T07:18:31;29.80;79.70
13310;DHT22;6723;48.256;16.402;2022-09-01T07:20:57;30.70;75.80
13310;DHT22;6723;48.256;16.402;2022-09-01T07:23:24;30.80;72.00
13310;DHT22;6723;48.256;16.402;2022-09-01T07:25:51;31.50;69.20
13310;DHT22;6723;48.256;16.402;2022-09-01T07:28:21;31.60;66.90
13310;DHT22;6723;48.256;16.402;2022-09-01T07:30:55;32.20;63.90
13310;DHT22;6723;48.256;16.402;2022-09-01T07:33:21;32.20;60.70
13310;DHT22;6723;48.256;16.402;2022-09-01T07:35:50;32.20;60.10
13310;DHT22;6723;48.256;16.402;2022-09-01T07:38:20;32.70;59.30
13310;DHT22;6723;48.256;16.402;2022-09-01T07:40:46;33.20;57.40
13310;DHT22;6723;48.256;16.402;2022-09-01T07:43:22;33.50;55.90
13310;DHT22;6723;48.256;16.402;2022-09-01T07:45:55;33.40;54.40
13310;DHT22;6723;48.256;16.402;2022-09-01T07:48:22;33.70;52.00
13310;DHT22;6723;48.256;16.402;2022-09-01T07:50:51;34.00;52.00
13310;DHT22;6723;48.256;16.402;2022-09-01T07:55:51;34.40;49.50
13310;DHT22;6723;48.256;16.402;2022-09-01T07:58:19;34.30;49.00
13310;DHT22;6723;48.256;16.402;2022-09-01T08:00:47;34.40;47.30
13310;DHT22;6723;48.256;16.402;2022-09-01T08:03:18;34.50;47.00
13310;DHT22;6723;48.256;16.402;2022-09-01T08:05:44;34.70;46.00
13310;DHT22;6723;48.256;16.402;2022-09-01T08:08:12;34.70;45.90
13310;DHT22;6723;48.256;16.402;2022-09-01T08:10:42;34.70;45.10
13310;DHT22;6723;48.256;16.402;2022-09-01T08:13:10;35.00;44.70
13310;DHT22;6723;48.256;16.402;2022-09-01T08:15:38;34.90;44.50
13310;DHT22;6723;48.256;16.402;2022-09-01T08:18:04;34.50;45.10
13310;DHT22;6723;48.256;16.402;2022-09-01T08:20:30;34.50;44.50
13310;DHT22;6723;48.256;16.402;2022-09-01T08:23:00;34.80;43.60
13310;DHT22;6723;48.256;16.402;2022-09-01T08:25:26;34.60;42.70
13310;DHT22;6723;48.256;16.402;2022-09-01T08:27:52;35.20;42.30
13310;DHT22;6723;48.256;16.402;2022-09-01T08:30:18;34.70;43.40
13310;DHT22;6723;48.256;16.402;2022-09-01T08:32:43;34.60;43.80
13310;DHT22;6723;48.256;16.402;2022-09-01T08:35:11;34.40;42.50
13310;DHT22;6723;48.256;16.402;2022-09-01T08:37:38;34.40;41.70
13310;DHT22;6723;48.256;16.402;2022-09-01T08:40:09;34.60;41.40
13310;DHT22;6723;48.256;16.402;2022-09-01T08:45:56;34.20;40.90
13310;DHT22;6723;48.256;16.402;2022-09-01T08:48:38;33.10;41.20
13310;DHT22;6723;48.256;16.402;2022-09-01T08:56:56;31.80;43.90
13310;DHT22;6723;48.256;16.402;2022-09-01T08:59:23;31.50;43.60
13310;DHT22;6723;48.256;16.402;2022-09-01T09:02:04;31.20;44.30
13310;DHT22;6723;48.256;16.402;2022-09-01T09:10:20;31.50;44.50
13310;DHT22;6723;48.256;16.402;2022-09-01T09:13:02;31.40;43.80
13310;DHT22;6723;48.256;16.402;2022-09-01T09:15:43;30.60;44.70
13310;DHT22;6723;48.256;16.402;2022-09-01T09:18:32;30.10;44.80
13310;DHT22;6723;48.256;16.402;2022-09-01T09:21:43;30.00;46.20
13310;DHT22;6723;48.256;16.402;2022-09-01T09:24:15;29.50;46.50
13310;DHT22;6723;48.256;16.402;2022-09-01T09:26:51;29.40;46.60
13310;DHT22;6723;48.256;16.402;2022-09-01T09:29:18;29.40;46.50
13310;DHT22;6723;48.256;16.402;2022-09-01T09:31:46;29.20;47.00
13310;DHT22;6723;48.256;16.402;2022-09-01T09:40:11;30.20;46.80
13310;DHT22;6723;48.256;16.402;2022-09-01T09:45:50;30.30;46.10
13310;DHT22;6723;48.256;16.402;2022-09-01T09:48:36;30.30;45.50
13310;DHT22;6723;48.256;16.402;2022-09-01T09:51:16;30.20;45.60
13310;DHT22;6723;48.256;16.402;2022-09-01T09:53:44;30.10;46.70
13310;DHT22;6723;48.256;16.402;2022-09-01T09:56:21;30.10;47.00
13310;DHT22;6723;48.256;16.402;2022-09-01T09:58:50;30.40;46.00
13310;DHT22;6723;48.256;16.402;2022-09-01T10:03:59;30.90;45.90
13310;DHT22;6723;48.256;16.402;2022-09-01T10:09:03;31.30;44.80
13310;DHT22;6723;48.256;16.402;2022-09-01T10:11:38;31.30;44.30
13310;DHT22;6723;48.256;16.402;2022-09-01T10:14:19;31.30;44.70
13310;DHT22;6723;48.256;16.402;2022-09-01T10:16:57;30.80;44.20
13310;DHT22;6723;48.256;16.402;2022-09-01T10:19:25;31.20;44.70
13310;DHT22;6723;48.256;16.402;2022-09-01T10:21:53;31.20;44.10
13310;DHT22;6723;48.256;16.402;2022-09-01T10:26:53;31.20;44.20
13310;DHT22;6723;48.256;16.402;2022-09-01T10:29:26;30.80;44.90
13310;DHT22;6723;48.256;16.402;2022-09-01T10:31:55;30.40;45.40
13310;DHT22;6723;48.256;16.402;2022-09-01T10:34:21;30.00;46.10
13310;DHT22;6723;48.256;16.402;2022-09-01T10:36:49;29.50;46.50
13310;DHT22;6723;48.256;16.402;2022-09-01T10:39:17;29.50;46.40
13310;DHT22;6723;48.256;16.402;2022-09-01T10:41:58;29.50;47.70
13310;DHT22;6723;48.256;16.402;2022-09-01T10:44:36;29.60;47.00
13310;DHT22;6723;48.256;16.402;2022-09-01T10:55:34;29.80;46.20
13310;DHT22;6723;48.256;16.402;2022-09-01T10:58:40;30.60;45.80
13310;DHT22;6723;48.256;16.402;2022-09-01T11:01:03;30.50;45.40
13310;DHT22;6723;48.256;16.402;2022-09-01T11:03:35;29.90;45.40
13310;DHT22;6723;48.256;16.402;2022-09-01T11:06:05;30.10;45.60
13310;DHT22;6723;48.256;16.402;2022-09-01T11:16:31;31.40;44.20
13310;DHT22;6723;48.256;16.402;2022-09-01T11:21:42;32.10;43.40
13310;DHT22;6723;48.256;16.402;2022-09-01T11:35:44;31.00;43.70
13310;DHT22;6723;48.256;16.402;2022-09-01T11:38:14;31.40;45.00
13310;DHT22;6723;48.256;16.402;2022-09-01T11:40:40;31.30;43.50
13310;DHT22;6723;48.256;16.402;2022-09-01T11:43:13;31.50;43.90
13310;DHT22;6723;48.256;16.402;2022-09-01T11:46:34;31.80;43.70
13310;DHT22;6723;48.256;16.402;2022-09-01T11:48:53;32.50;43.10
13310;DHT22;6723;48.256;16.402;2022-09-01T11:51:20;32.70;42.50
13310;DHT22;6723;48.256;16.402;2022-09-01T11:53:46;31.90;41.80
13310;DHT22;6723;48.256;16.402;2022-09-01T11:56:23;31.40;43.00
13310;DHT22;6723;48.256;16.402;2022-09-01T11:58:50;31.70;42.70
13310;DHT22;6723;48.256;16.402;2022-09-01T12:03:45;32.30;43.70
13310;DHT22;6723;48.256;16.402;2022-09-01T12:06:20;32.50;41.80
13310;DHT22;6723;48.256;16.402;2022-09-01T12:08:53;32.00;41.50
13310;DHT22;6723;48.256;16.402;2022-09-01T12:11:26;32.10;42.40
13310;DHT22;6723;48.256;16.402;2022-09-01T12:14:06;31.50;42.50
13310;DHT22;6723;48.256;16.402;2022-09-01T12:16:34;31.10;42.50
13310;DHT22;6723;48.256;16.402;2022-09-01T12:19:03;30.40;42.80
13310;DHT22;6723;48.256;16.402;2022-09-01T12:21:43;29.90;43.90
13310;DHT22;6723;48.256;16.402;2022-09-01T12:24:23;29.50;44.00
13310;DHT22;6723;48.256;16.402;2022-09-01T12:26:51;29.20;44.90
13310;DHT22;6723;48.256;16.402;2022-09-01T12:29:23;28.80;44.80
13310;DHT22;6723;48.256;16.402;2022-09-01T12:31:51;28.50;44.90
13310;DHT22;6723;48.256;16.402;2022-09-01T12:37:26;28.80;45.50
13310;DHT22;6723;48.256;16.402;2022-09-01T12:39:53;29.10;45.60
13310;DHT22;6723;48.256;16.402;2022-09-01T12:42:33;29.30;44.80
13310;DHT22;6723;48.256;16.402;2022-09-01T12:45:04;29.10;44.70
13310;DHT22;6723;48.256;16.402;2022-09-01T12:50:32;29.10;45.10
13310;DHT22;6723;48.256;16.402;2022-09-01T12:55:26;29.20;43.90
13310;DHT22;6723;48.256;16.402;2022-09-01T12:57:55;29.20;44.50
13310;DHT22;6723;48.256;16.402;2022-09-01T13:00:25;28.90;45.00
13310;DHT22;6723;48.256;16.402;2022-09-01T13:03:12;29.20;45.40
13310;DHT22;6723;48.256;16.402;2022-09-01T13:05:45;29.30;46.00
13310;DHT22;6723;48.256;16.402;2022-09-01T13:08:24;29.10;46.10
13310;DHT22;6723;48.256;16.402;2022-09-01T13:10:53;29.00;45.30
13310;DHT22;6723;48.256;16.402;2022-09-01T13:13:21;28.60;44.80
13310;DHT22;6723;48.256;16.402;2022-09-01T13:15:51;28.60;44.80
13310;DHT22;6723;48.256;16.402;2022-09-01T13:18:20;28.60;45.10
13310;DHT22;6723;48.256;16.402;2022-09-01T13:20:47;28.50;45.50
13310;DHT22;6723;48.256;16.402;2022-09-01T13:23:13;28.40;45.60
13310;DHT22;6723;48.256;16.402;2022-09-01T13:25:40;28.40;45.10
13310;DHT22;6723;48.256;16.402;2022-09-01T13:28:09;28.40;44.80
13310;DHT22;6723;48.256;16.402;2022-09-01T13:30:36;28.50;45.00
13310;DHT22;6723;48.256;16.402;2022-09-01T13:33:03;28.20;44.60
13310;DHT22;6723;48.256;16.402;2022-09-01T13:35:28;27.70;44.70
13310;DHT22;6723;48.256;16.402;2022-09-01T13:37:54;27.30;44.90
13310;DHT22;6723;48.256;16.402;2022-09-01T13:40:21;27.20;45.50
13310;DHT22;6723;48.256;16.402;2022-09-01T13:42:53;27.30;46.40
13310;DHT22;6723;48.256;16.402;2022-09-01T13:45:21;27.20;46.00
13310;DHT22;6723;48.256;16.402;2022-09-01T13:47:49;27.30;45.20
13310;DHT22;6723;48.256;16.402;2022-09-01T13:50:17;27.60;44.80
13310;DHT22;6723;48.256;16.402;2022-09-01T13:52:49;27.80;44.90
13310;DHT22;6723;48.256;16.402;2022-09-01T13:55:18;28.00;45.00
13310;DHT22;6723;48.256;16.402;2022-09-01T13:57:44;28.20;44.80
13310;DHT22;6723;48.256;16.402;2022-09-01T14:00:15;27.90;45.30
13310;DHT22;6723;48.256;16.402;2022-09-01T14:02:47;27.90;46.20
13310;DHT22;6723;48.256;16.402;2022-09-01T14:05:17;27.40;46.20
13310;DHT22;6723;48.256;16.402;2022-09-01T14:07:43;27.30;46.60
13310;DHT22;6723;48.256;16.402;2022-09-01T14:10:09;27.20;46.80
13310;DHT22;6723;48.256;16.402;2022-09-01T14:12:36;27.40;47.10
13310;DHT22;6723;48.256;16.402;2022-09-01T14:15:02;27.50;46.40
13310;DHT22;6723;48.256;16.402;2022-09-01T14:17:28;27.30;46.50
13310;DHT22;6723;48.256;16.402;2022-09-01T14:19:54;27.40;46.10
13310;DHT22;6723;48.256;16.402;2022-09-01T14:22:21;27.10;45.80
13310;DHT22;6723;48.256;16.402;2022-09-01T14:24:47;26.90;45.30
13310;DHT22;6723;48.256;16.402;2022-09-01T14:27:13;27.00;45.30
13310;DHT22;6723;48.256;16.402;2022-09-01T14:29:39;27.10;45.40
13310;DHT22;6723;48.256;16.402;2022-09-01T14:32:05;27.10;45.50
13310;DHT22;6723;48.256;16.402;2022-09-01T14:34:33;27.30;45.30
13310;DHT22;6723;48.256;16.402;2022-09-01T14:36:59;27.20;45.40
13310;DHT22;6723;48.256;16.402;2022-09-01T14:39:58;27.40;45.50
13310;DHT22;6723;48.256;16.402;2022-09-01T14:42:24;27.30;44.90
13310;DHT22;6723;48.256;16.402;2022-09-01T14:44:53;27.30;43.50
13310;DHT22;6723;48.256;16.402;2022-09-01T14:47:37;27.10;43.80
13310;DHT22;6723;48.256;16.402;2022-09-01T14:50:05;27.00;43.90
13310;DHT22;6723;48.256;16.402;2022-09-01T14:52:31;26.80;43.50
13310;DHT22;6723;48.256;16.402;2022-09-01T14:54:56;26.70;43.70
13310;DHT22;6723;48.256;16.402;2022-09-01T14:57:22;26.50;44.60
13310;DHT22;6723;48.256;16.402;2022-09-01T14:59:48;26.40;45.20
13310;DHT22;6723;48.256;16.402;2022-09-01T15:02:14;26.30;45.80
13310;DHT22;6723;48.256;16.402;2022-09-01T15:04:40;26.20;45.10
13310;DHT22;6723;48.256;16.402;2022-09-01T15:07:07;26.10;45.60
13310;DHT22;6723;48.256;16.402;2022-09-01T15:09:33;25.90;46.00
13310;DHT22;6723;48.256;16.402;2022-09-01T15:11:59;25.60;46.50
13310;DHT22;6723;48.256;16.402;2022-09-01T15:14:26;25.60;46.90
13310;DHT22;6723;48.256;16.402;2022-09-01T15:16:52;25.40;46.90
13310;DHT22;6723;48.256;16.402;2022-09-01T15:19:20;25.50;47.40
13310;DHT22;6723;48.256;16.402;2022-09-01T15:22:04;25.40;47.40
13310;DHT22;6723;48.256;16.402;2022-09-01T15:24:33;25.20;47.60
13310;DHT22;6723;48.256;16.402;2022-09-01T15:26:58;25.10;47.70
13310;DHT22;6723;48.256;16.402;2022-09-01T15:29:24;25.10;47.60
13310;DHT22;6723;48.256;16.402;2022-09-01T15:31:50;25.00;47.00
13310;DHT22;6723;48.256;16.402;2022-09-01T15:34:16;25.00;46.40
13310;DHT22;6723;48.256;16.402;2022-09-01T15:36:43;24.90;47.00
13310;DHT22;6723;48.256;16.402;2022-09-01T15:39:10;24.90;46.50
13310;DHT22;6723;48.256;16.402;2022-09-01T15:41:36;24.80;46.40
13310;DHT22;6723;48.256;16.402;2022-09-01T15:44:04;24.70;46.50
13310;DHT22;6723;48.256;16.402;2022-09-01T15:46:32;24.80;47.10
13310;DHT22;6723;48.256;16.402;2022-09-01T15:48:59;24.80;47.80
13310;DHT22;6723;48.256;16.402;2022-09-01T15:51:29;24.70;48.60
13310;DHT22;6723;48.256;16.402;2022-09-01T15:54:07;24.50;48.90
13310;DHT22;6723;48.256;16.402;2022-09-01T15:56:33;24.60;49.10
13310;DHT22;6723;48.256;16.402;2022-09-01T15:59:00;24.50;49.00
13310;DHT22;6723;48.256;16.402;2022-09-01T16:01:28;24.50;49.40
13310;DHT22;6723;48.256;16.402;2022-09-01T16:03:55;24.40;49.10
13310;DHT22;6723;48.256;16.402;2022-09-01T16:06:22;24.20;48.70
13310;DHT22;6723;48.256;16.402;2022-09-01T16:08:48;24.20;48.50
13310;DHT22;6723;48.256;16.402;2022-09-01T16:11:14;24.10;48.50
13310;DHT22;6723;48.256;16.402;2022-09-01T16:13:42;24.00;48.40
13310;DHT22;6723;48.256;16.402;2022-09-01T16:24:12;23.70;49.90
13310;DHT22;6723;48.256;16.402;2022-09-01T16:26:40;23.70;50.50
13310;DHT22;6723;48.256;16.402;2022-09-01T16:29:14;23.60;50.90
13310;DHT22;6723;48.256;16.402;2022-09-01T16:31:50;23.50;50.80
13310;DHT22;6723;48.256;16.402;2022-09-01T16:34:18;23.40;51.10
13310;DHT22;6723;48.256;16.402;2022-09-01T16:37:03;23.40;51.30
13310;DHT22;6723;48.256;16.402;2022-09-01T16:45:14;23.00;51.00
13310;DHT22;6723;48.256;16.402;2022-09-01T16:47:51;22.90;51.40
13310;DHT22;6723;48.256;16.402;2022-09-01T16:56:52;22.60;51.60
13310;DHT22;6723;48.256;16.402;2022-09-01T16:59:16;22.50;52.10
13310;DHT22;6723;48.256;16.402;2022-09-01T17:04:51;22.30;52.80
13310;DHT22;6723;48.256;16.402;2022-09-01T17:07:27;22.30;53.00
13310;DHT22;6723;48.256;16.402;2022-09-01T17:10:15;22.10;53.30
13310;DHT22;6723;48.256;16.402;2022-09-01T17:12:47;22.10;54.00
13310;DHT22;6723;48.256;16.402;2022-09-01T17:15:28;22.00;53.90
13310;DHT22;6723;48.256;16.402;2022-09-01T17:18:16;21.80;53.90
13310;DHT22;6723;48.256;16.402;2022-09-01T17:20:47;21.70;54.10
13310;DHT22;6723;48.256;16.402;2022-09-01T17:23:19;21.60;54.50
13310;DHT22;6723;48.256;16.402;2022-09-01T17:26:26;21.60;54.80
13310;DHT22;6723;48.256;16.402;2022-09-01T17:34:26;21.30;55.90
13310;DHT22;6723;48.256;16.402;2022-09-01T17:42:46;21.00;57.00
13310;DHT22;6723;48.256;16.402;2022-09-01T17:45:28;21.00;57.40